Gustavus, AK

12:12 PM AKST on November 25, 2014 (GMT -0900)
Gustavus | Change Station
CLOSE
Current Station
Airport
Location: Gustavus,
Elevation: 30 ft
Nearby Weather Stations

Elev 30 ft 58.43 °N, 135.71 °W | Updated 1 hour ago

Overcast
Overcast
39 °F
Feels Like 34 °F
N
7
Wind Variable Wind from NW

Today
High -- | Low -- °F
--% Chance of Precip.
Yesterday
High -- | Low -- °F
Precip. -- in
8:21 AM 3:27 PM
Waxing Crescent, 14% visible
Pressure 30.16 in
Visibility 7.0 miles
Clouds Mostly Cloudy 1200 ft
Overcast 2500 ft
Windchill 34 °F
Dew Point 37 °F
Humidity 93%
Rainfall 0.00 in
Snow Depth Not available.
UV 0 out of 12
Pollen Not available.
Air Quality Not available.
Flu Activity Not available.
METAR PAGS 252007Z AUTO 32006KT 7SM BKN012 OVC025 04/03 A3016 RMK VIA PHONE

More Conditions Fewer Conditions

Pressure 30.16 in
Visibility 7.0 miles
Clouds Mostly Cloudy 1200 ft
Overcast 2500 ft
Windchill 34 °F
Dew Point 37 °F
Humidity 93%
Rainfall 0.00 in
Snow Depth Not available.
UV 0 out of 12
Pollen Not available.
Air Quality Not available.
Flu Activity Not available.
METAR PAGS 252007Z AUTO 32006KT 7SM BKN012 OVC025 04/03 A3016 RMK VIA PHONE

More Conditions Fewer Conditions

10-Day Weather Forecast

Almanac

Astronomy

Nov. 25, 2014 Rise Set
Actual Time
Civil Twilight
Nautical Twilight
Astronomical Twilight
Moon
Length of Visible Light
Length of Day
Tomorrow will be .
, % of the Moon is Illuminated

Today's Extremes

State Highs State Lows

Community

WunderPhotos

Upload Photos

1,773,588 photos uploaded!

WunderBlogs® & News

Nearby

Air Quality

  Air Quality AQ Index Pollutant
Not available.

Snow Depth

Station Depth Elevation

Earthquake Activity

City Distance Mag. Time & Date
Minimum magnitude displayed is 2.5.

Coastal Water Temperatures

Place Temperature

Nearby Weather Stations